createdAt,value
2016-12-08T00:00:21.032Z,0
2016-12-08T00:01:21.334Z,0
2016-12-08T00:02:21.021Z,0
2016-12-08T00:03:20.999Z,0
2016-12-08T00:04:20.999Z,0
2016-12-08T00:05:20.981Z,0
2016-12-08T00:06:20.973Z,0
2016-12-08T00:07:20.951Z,0
2016-12-08T00:08:20.948Z,0
2016-12-08T00:09:20.931Z,0
2016-12-08T00:10:20.920Z,0
2016-12-08T00:11:20.911Z,0
2016-12-08T00:12:20.898Z,0
2016-12-08T00:13:20.881Z,0
2016-12-08T00:14:20.876Z,0
2016-12-08T00:15:20.862Z,0
2016-12-08T00:16:20.851Z,0
2016-12-08T00:17:20.850Z,0
2016-12-08T00:18:20.825Z,0
2016-12-08T00:19:20.816Z,0
2016-12-08T00:20:20.797Z,0
2016-12-08T00:21:21.097Z,0
2016-12-08T00:22:20.785Z,0
2016-12-08T00:23:20.764Z,0
2016-12-08T00:24:20.758Z,0
2016-12-08T00:25:20.744Z,0
2016-12-08T00:26:20.737Z,0
2016-12-08T00:27:20.721Z,0
2016-12-08T00:28:20.706Z,0
2016-12-08T00:29:20.734Z,0
2016-12-08T00:30:20.688Z,0
2016-12-08T00:31:20.677Z,0
2016-12-08T00:32:20.664Z,0
2016-12-08T00:33:20.655Z,0
2016-12-08T00:34:20.646Z,0
2016-12-08T00:35:20.630Z,0
2016-12-08T00:36:20.619Z,0
2016-12-08T00:37:20.643Z,0
2016-12-08T00:38:20.593Z,0
2016-12-08T00:39:20.579Z,0
2016-12-08T00:40:20.570Z,0
2016-12-08T00:41:20.560Z,0
2016-12-08T00:42:20.842Z,0
2016-12-08T00:43:20.530Z,0
2016-12-08T00:44:20.517Z,0
2016-12-08T00:45:20.508Z,0
2016-12-08T00:46:20.499Z,0
2016-12-08T00:47:20.480Z,0
2016-12-08T00:48:20.479Z,0
2016-12-08T00:49:20.463Z,0
2016-12-08T00:50:20.446Z,0
2016-12-08T00:51:20.440Z,0
2016-12-08T00:52:20.431Z,0
2016-12-08T00:53:20.418Z,0
2016-12-08T00:54:20.396Z,0
2016-12-08T00:55:20.386Z,0
2016-12-08T00:56:20.371Z,0
2016-12-08T00:57:20.371Z,0
2016-12-08T00:58:20.349Z,0
2016-12-08T00:59:20.340Z,0
2016-12-08T01:00:20.335Z,0
2016-12-08T01:01:20.316Z,0
2016-12-08T01:02:20.305Z,0
2016-12-08T01:03:20.300Z,0
2016-12-08T01:04:20.286Z,0
2016-12-08T01:05:20.268Z,0
2016-12-08T01:06:20.256Z,0
2016-12-08T01:07:20.571Z,0
2016-12-08T01:08:20.227Z,0
2016-12-08T01:09:20.222Z,0
2016-12-08T01:10:20.210Z,0
2016-12-08T01:11:20.211Z,0
2016-12-08T01:12:20.185Z,0
2016-12-08T01:13:20.182Z,0
2016-12-08T01:14:20.162Z,0
2016-12-08T01:15:20.150Z,0
2016-12-08T01:16:20.439Z,0
2016-12-08T01:17:20.128Z,0
2016-12-08T01:18:20.116Z,0
2016-12-08T01:19:20.112Z,0
2016-12-08T01:20:20.090Z,0
2016-12-08T01:21:20.081Z,0
2016-12-08T01:22:20.067Z,0
2016-12-08T01:23:20.054Z,0
2016-12-08T01:24:20.052Z,0
2016-12-08T01:25:20.033Z,0
2016-12-08T01:26:20.022Z,0
2016-12-08T01:27:20.008Z,0
2016-12-08T01:28:20.003Z,0
2016-12-08T01:29:20.025Z,0
2016-12-08T01:30:19.976Z,0
2016-12-08T01:31:19.957Z,0
2016-12-08T01:32:19.951Z,0
2016-12-08T01:33:19.941Z,0
2016-12-08T01:34:19.928Z,0
2016-12-08T01:35:20.224Z,0
2016-12-08T01:36:19.907Z,0
2016-12-08T01:37:19.894Z,0
2016-12-08T01:38:19.887Z,0
2016-12-08T01:39:19.871Z,0
2016-12-08T01:40:19.858Z,0
2016-12-08T01:41:20.161Z,0
2016-12-08T01:42:19.836Z,0
2016-12-08T01:43:20.118Z,0
2016-12-08T01:44:19.813Z,0
2016-12-08T01:45:19.797Z,0
2016-12-08T01:46:20.094Z,0
2016-12-08T01:47:19.774Z,0
2016-12-08T01:48:19.762Z,0
2016-12-08T01:49:19.757Z,0
2016-12-08T01:50:19.740Z,0
2016-12-08T01:51:19.726Z,0
2016-12-08T01:52:19.719Z,0
2016-12-08T01:53:19.709Z,0
2016-12-08T01:54:19.693Z,0
2016-12-08T01:55:19.681Z,0
2016-12-08T01:56:19.669Z,0
2016-12-08T01:57:19.671Z,0
2016-12-08T01:58:19.651Z,0
2016-12-08T01:59:19.646Z,0
2016-12-08T02:00:19.623Z,0
2016-12-08T02:01:19.613Z,0
2016-12-08T02:02:19.598Z,0
2016-12-08T02:03:19.584Z,0
2016-12-08T02:04:19.583Z,0
2016-12-08T02:05:19.563Z,0
2016-12-08T02:06:19.560Z,0
2016-12-08T02:07:19.544Z,0
2016-12-08T02:08:19.533Z,0
2016-12-08T02:09:19.519Z,0
2016-12-08T02:10:19.505Z,0
2016-12-08T02:11:19.504Z,0
2016-12-08T02:12:19.482Z,0
2016-12-08T02:13:19.768Z,0
2016-12-08T02:14:19.454Z,0
2016-12-08T02:15:19.440Z,0
2016-12-08T02:16:19.443Z,0
2016-12-08T02:17:19.427Z,0
2016-12-08T02:18:19.406Z,0
2016-12-08T02:19:19.407Z,0
2016-12-08T02:20:19.390Z,0
2016-12-08T02:21:19.376Z,0
2016-12-08T02:22:19.363Z,0
2016-12-08T02:23:19.351Z,0
2016-12-08T02:24:19.337Z,0
2016-12-08T02:25:19.324Z,0
2016-12-08T02:26:19.319Z,0
2016-12-08T02:27:19.303Z,0
2016-12-08T02:28:19.288Z,0
2016-12-08T02:29:19.278Z,0
2016-12-08T02:30:19.259Z,0
2016-12-08T02:31:19.268Z,0
2016-12-08T02:32:19.241Z,0
2016-12-08T02:33:19.229Z,0
2016-12-08T02:34:19.219Z,0
2016-12-08T02:35:19.211Z,0
2016-12-08T02:36:19.197Z,0
2016-12-08T02:37:19.185Z,0
2016-12-08T02:38:19.173Z,0
2016-12-08T02:39:19.153Z,0
2016-12-08T02:40:19.156Z,0
2016-12-08T02:41:19.134Z,0
2016-12-08T02:42:19.124Z,0
2016-12-08T02:43:19.112Z,0
2016-12-08T02:44:19.097Z,0
2016-12-08T02:45:19.116Z,0
2016-12-08T02:46:19.079Z,0
2016-12-08T02:47:19.096Z,0
2016-12-08T02:48:19.047Z,0
2016-12-08T02:49:19.040Z,0
2016-12-08T02:50:19.024Z,0
2016-12-08T02:51:19.017Z,0
2016-12-08T02:52:19.004Z,0
2016-12-08T02:53:18.994Z,0
2016-12-08T02:54:18.973Z,0
2016-12-08T02:55:19.006Z,0
2016-12-08T02:56:18.962Z,0
2016-12-08T02:57:18.963Z,0
2016-12-08T02:58:18.927Z,0
2016-12-08T02:59:18.922Z,0
2016-12-08T03:00:18.945Z,0
2016-12-08T03:01:18.898Z,0
2016-12-08T03:02:18.885Z,0
2016-12-08T03:03:18.874Z,0
2016-12-08T03:04:18.889Z,0
2016-12-08T03:05:18.844Z,0
2016-12-08T03:06:18.826Z,0
2016-12-08T03:07:18.819Z,0
2016-12-08T03:08:18.818Z,0
2016-12-08T03:09:18.797Z,0
2016-12-08T03:10:18.789Z,0
2016-12-08T03:11:18.778Z,0
2016-12-08T03:12:18.765Z,0
2016-12-08T03:13:18.754Z,0
2016-12-08T03:14:18.737Z,0
2016-12-08T03:15:18.722Z,0
2016-12-08T03:16:18.716Z,0
2016-12-08T03:17:18.700Z,0
2016-12-08T03:18:18.696Z,0
2016-12-08T03:19:18.680Z,0
2016-12-08T03:20:18.658Z,0
2016-12-08T03:21:18.654Z,0
2016-12-08T03:22:18.635Z,0
2016-12-08T03:23:18.628Z,0
2016-12-08T03:24:18.617Z,0
2016-12-08T03:25:18.603Z,0
2016-12-08T03:26:18.587Z,0
2016-12-08T03:27:18.579Z,0
2016-12-08T03:28:18.568Z,0
2016-12-08T03:29:18.555Z,0
2016-12-08T03:30:18.543Z,0
2016-12-08T03:31:18.534Z,0
2016-12-08T03:32:18.513Z,0
2016-12-08T03:33:18.500Z,0
2016-12-08T03:34:18.494Z,0
2016-12-08T03:35:18.477Z,0
2016-12-08T03:36:18.464Z,0
2016-12-08T03:37:18.455Z,0
2016-12-08T03:38:18.464Z,0
2016-12-08T03:39:18.429Z,0
2016-12-08T03:40:18.415Z,0
2016-12-08T03:41:18.407Z,0
2016-12-08T03:42:18.399Z,0
2016-12-08T03:43:18.378Z,0
2016-12-08T03:44:18.367Z,0
2016-12-08T03:45:18.350Z,0
2016-12-08T03:46:18.341Z,0
2016-12-08T03:47:18.326Z,0
2016-12-08T03:48:18.317Z,0
2016-12-08T03:49:18.302Z,0
2016-12-08T03:50:18.288Z,0
2016-12-08T03:51:18.282Z,0
2016-12-08T03:52:18.266Z,0
2016-12-08T03:53:18.255Z,0
2016-12-08T03:54:18.240Z,0
2016-12-08T03:55:18.232Z,0
2016-12-08T03:56:18.251Z,0
2016-12-08T03:57:18.204Z,0
2016-12-08T03:58:18.189Z,0
2016-12-08T03:59:18.180Z,0
2016-12-08T04:00:18.164Z,0
2016-12-08T04:01:18.154Z,0
2016-12-08T04:02:18.145Z,0
2016-12-08T04:03:18.133Z,0
2016-12-08T04:04:18.122Z,0
2016-12-08T04:05:18.104Z,0
2016-12-08T04:06:18.095Z,0
2016-12-08T04:07:18.081Z,0
2016-12-08T04:08:18.072Z,0
2016-12-08T04:09:18.055Z,0
2016-12-08T04:10:18.044Z,0
2016-12-08T04:11:18.035Z,0
2016-12-08T04:12:18.023Z,0
2016-12-08T04:13:18.012Z,0
2016-12-08T04:14:18.331Z,0
2016-12-08T04:15:17.984Z,0
2016-12-08T04:16:17.971Z,0
2016-12-08T04:17:17.963Z,0
2016-12-08T04:18:17.951Z,0
2016-12-08T04:19:17.932Z,0
2016-12-08T04:20:17.927Z,0
2016-12-08T04:21:17.909Z,0
2016-12-08T04:22:17.895Z,0
2016-12-08T04:23:17.886Z,0
2016-12-08T04:24:17.877Z,0
2016-12-08T04:25:17.894Z,0
2016-12-08T04:26:17.851Z,0
2016-12-08T04:27:17.847Z,0
2016-12-08T04:28:17.826Z,0
2016-12-08T04:29:17.812Z,0
2016-12-08T04:30:17.801Z,0
2016-12-08T04:31:17.791Z,0
2016-12-08T04:32:17.778Z,0
2016-12-08T04:33:17.786Z,0
2016-12-08T04:34:17.751Z,0
2016-12-08T04:35:17.736Z,0
2016-12-08T04:36:17.728Z,0
2016-12-08T04:37:17.713Z,0
2016-12-08T04:38:17.705Z,0
2016-12-08T04:39:17.688Z,0
2016-12-08T04:40:17.709Z,0
2016-12-08T04:41:17.664Z,0
2016-12-08T04:42:17.650Z,0
2016-12-08T04:43:17.641Z,0
2016-12-08T04:44:17.628Z,0
2016-12-08T04:45:17.616Z,0
2016-12-08T04:46:17.603Z,0
2016-12-08T04:47:17.595Z,0
2016-12-08T04:48:17.583Z,0
2016-12-08T04:49:17.570Z,0
2016-12-08T04:50:17.554Z,0
2016-12-08T04:51:17.541Z,0
2016-12-08T04:52:17.529Z,0
2016-12-08T04:53:17.818Z,0
2016-12-08T04:54:17.511Z,0
2016-12-08T04:55:17.491Z,0
2016-12-08T04:56:17.484Z,0
2016-12-08T04:57:17.469Z,0
2016-12-08T04:58:17.457Z,0
2016-12-08T04:59:17.446Z,0
2016-12-08T05:00:17.430Z,0
2016-12-08T05:01:17.420Z,0
2016-12-08T05:02:17.406Z,0
2016-12-08T05:03:17.396Z,0
2016-12-08T05:04:17.385Z,0
2016-12-08T05:05:17.371Z,0
2016-12-08T05:06:17.357Z,0
2016-12-08T05:07:17.344Z,0
2016-12-08T05:08:17.334Z,0
2016-12-08T05:09:17.322Z,0
2016-12-08T05:10:17.307Z,0
2016-12-08T05:11:17.616Z,0
2016-12-08T05:12:17.287Z,0
2016-12-08T05:13:17.300Z,0
2016-12-08T05:14:17.264Z,0
2016-12-08T05:15:17.246Z,0
2016-12-08T05:16:17.239Z,0
2016-12-08T05:17:17.220Z,0
2016-12-08T05:18:17.210Z,0
2016-12-08T05:19:17.198Z,0
2016-12-08T05:20:17.185Z,0
2016-12-08T05:21:17.205Z,0
2016-12-08T05:22:17.169Z,0
2016-12-08T05:23:17.156Z,12
2016-12-08T05:24:17.175Z,28
2016-12-08T05:25:17.130Z,28
2016-12-08T05:26:17.115Z,28
2016-12-08T05:27:17.106Z,28
2016-12-08T05:28:17.097Z,28
2016-12-08T05:29:17.080Z,28
2016-12-08T05:30:17.070Z,32
2016-12-08T05:31:17.058Z,32
2016-12-08T05:32:17.042Z,32
2016-12-08T05:33:17.035Z,32
2016-12-08T05:34:17.050Z,32
2016-12-08T05:35:17.005Z,32
2016-12-08T05:36:16.993Z,32
2016-12-08T05:37:16.984Z,32
2016-12-08T05:38:16.972Z,32
2016-12-08T05:39:16.964Z,32
2016-12-08T05:40:16.946Z,32
2016-12-08T05:41:16.943Z,28
2016-12-08T05:42:16.924Z,28
2016-12-08T05:43:16.918Z,28
2016-12-08T05:44:16.897Z,28
2016-12-08T05:45:16.897Z,28
2016-12-08T05:46:16.872Z,28
2016-12-08T05:47:16.862Z,0
2016-12-08T05:48:16.853Z,0
2016-12-08T05:49:16.840Z,0
2016-12-08T05:50:16.825Z,0
2016-12-08T05:51:16.812Z,0
2016-12-08T05:52:16.798Z,0
2016-12-08T05:53:16.786Z,0
2016-12-08T05:54:16.783Z,0
2016-12-08T05:55:16.764Z,0
2016-12-08T05:56:16.755Z,0
2016-12-08T05:57:16.744Z,0
2016-12-08T05:58:16.729Z,0
2016-12-08T05:59:16.719Z,0
2016-12-08T06:00:16.697Z,16
2016-12-08T06:01:16.695Z,0
2016-12-08T06:02:16.977Z,0
2016-12-08T06:03:16.664Z,0
2016-12-08T06:04:16.653Z,0
2016-12-08T06:05:16.640Z,0
2016-12-08T06:06:16.631Z,0
2016-12-08T06:07:16.618Z,0
2016-12-08T06:08:16.607Z,0
2016-12-08T06:09:16.602Z,0
2016-12-08T06:10:16.578Z,0
2016-12-08T06:11:16.563Z,0
2016-12-08T06:12:16.557Z,0
2016-12-08T06:13:16.542Z,0
2016-12-08T06:14:16.559Z,0
2016-12-08T06:15:16.520Z,0
2016-12-08T06:16:16.542Z,0
2016-12-08T06:17:16.496Z,0
2016-12-08T06:18:16.488Z,0
2016-12-08T06:19:16.475Z,0
2016-12-08T06:20:16.458Z,0
2016-12-08T06:21:16.455Z,0
2016-12-08T06:22:16.435Z,0
2016-12-08T06:23:16.418Z,0
2016-12-08T06:24:16.415Z,4
2016-12-08T06:25:16.399Z,4
2016-12-08T06:26:16.388Z,4
2016-12-08T06:27:16.373Z,4
2016-12-08T06:28:16.667Z,4
2016-12-08T06:29:16.347Z,4
2016-12-08T06:30:16.364Z,8
2016-12-08T06:31:16.321Z,4
2016-12-08T06:32:16.311Z,8
2016-12-08T06:33:16.300Z,8
2016-12-08T06:34:16.287Z,8
2016-12-08T06:35:16.278Z,12
2016-12-08T06:36:16.260Z,12
2016-12-08T06:37:16.557Z,16
2016-12-08T06:38:16.240Z,20
2016-12-08T06:39:16.225Z,24
2016-12-08T06:40:16.220Z,28
2016-12-08T06:41:16.499Z,32
2016-12-08T06:42:16.191Z,40
2016-12-08T06:43:16.177Z,44
2016-12-08T06:44:16.161Z,52
2016-12-08T06:45:16.158Z,56
2016-12-08T06:46:16.143Z,64
2016-12-08T06:47:16.132Z,72
2016-12-08T06:48:16.111Z,80
2016-12-08T06:49:16.109Z,92
2016-12-08T06:50:16.090Z,100
2016-12-08T06:51:16.080Z,112
2016-12-08T06:52:16.069Z,120
2016-12-08T06:53:16.056Z,132
2016-12-08T06:54:16.053Z,140
2016-12-08T06:55:16.030Z,156
2016-12-08T06:56:16.014Z,168
2016-12-08T06:57:16.005Z,184
2016-12-08T06:58:15.996Z,196
2016-12-08T06:59:15.987Z,212
2016-12-08T07:00:15.974Z,228
2016-12-08T07:01:15.958Z,244
2016-12-08T07:02:15.951Z,260
2016-12-08T07:03:15.935Z,280
2016-12-08T07:04:15.920Z,296
2016-12-08T07:05:15.909Z,312
2016-12-08T07:06:16.234Z,332
2016-12-08T07:07:15.878Z,356
2016-12-08T07:08:15.879Z,380
2016-12-08T07:09:15.862Z,408
2016-12-08T07:10:15.855Z,436
2016-12-08T07:11:15.834Z,464
2016-12-08T07:12:15.827Z,496
2016-12-08T07:13:15.811Z,524
2016-12-08T07:14:15.831Z,560
2016-12-08T07:15:15.801Z,588
2016-12-08T07:16:15.774Z,620
2016-12-08T07:17:15.760Z,648
2016-12-08T07:18:15.750Z,676
2016-12-08T07:19:15.738Z,704
2016-12-08T07:20:15.727Z,732
2016-12-08T07:21:15.715Z,760
2016-12-08T07:22:15.697Z,788
2016-12-08T07:23:15.689Z,816
2016-12-08T07:24:15.678Z,844
2016-12-08T07:25:15.670Z,876
2016-12-08T07:26:15.953Z,908
2016-12-08T07:27:15.641Z,936
2016-12-08T07:28:15.627Z,968
2016-12-08T07:29:15.628Z,1004
2016-12-08T07:30:15.602Z,1040
2016-12-08T07:31:15.595Z,1076
2016-12-08T07:32:15.582Z,1116
2016-12-08T07:33:15.573Z,1160
2016-12-08T07:34:15.554Z,1200
2016-12-08T07:35:15.576Z,1244
2016-12-08T07:36:15.531Z,1284
2016-12-08T07:37:15.521Z,1332
2016-12-08T07:38:15.510Z,1392
2016-12-08T07:39:15.491Z,1444
2016-12-08T07:40:15.484Z,1500
2016-12-08T07:41:15.479Z,1548
2016-12-08T07:42:15.461Z,1604
2016-12-08T07:43:15.453Z,1668
2016-12-08T07:44:15.434Z,1732
2016-12-08T07:45:15.427Z,1788
2016-12-08T07:46:15.416Z,1844
2016-12-08T07:47:15.399Z,1892
2016-12-08T07:48:15.393Z,1932
2016-12-08T07:49:15.384Z,1972
2016-12-08T07:50:15.361Z,2000
2016-12-08T07:51:15.352Z,2044
2016-12-08T07:52:15.344Z,2096
2016-12-08T07:53:15.328Z,2152
2016-12-08T07:54:15.320Z,2196
2016-12-08T07:55:15.316Z,2252
2016-12-08T07:56:15.292Z,2284
2016-12-08T07:57:15.288Z,2312
2016-12-08T07:58:15.277Z,2356
2016-12-08T07:59:15.259Z,2396
2016-12-08T08:00:15.549Z,2428
2016-12-08T08:01:15.241Z,2464
2016-12-08T08:02:15.229Z,2516
2016-12-08T08:03:15.215Z,2584
2016-12-08T08:04:15.200Z,2660
2016-12-08T08:05:15.191Z,2728
2016-12-08T08:06:15.180Z,2792
2016-12-08T08:07:15.173Z,2908
2016-12-08T08:08:15.159Z,3040
2016-12-08T08:09:15.159Z,3136
2016-12-08T08:10:15.140Z,3180
2016-12-08T08:11:15.124Z,3224
2016-12-08T08:12:15.111Z,3272
2016-12-08T08:13:15.101Z,3328
2016-12-08T08:14:15.089Z,3416
2016-12-08T08:15:15.076Z,3508
2016-12-08T08:16:15.075Z,3564
2016-12-08T08:17:15.064Z,3500
2016-12-08T08:18:15.048Z,3424
2016-12-08T08:19:15.039Z,3376
2016-12-08T08:20:15.028Z,3420
2016-12-08T08:21:15.015Z,3504
2016-12-08T08:22:15.000Z,3576
2016-12-08T08:23:15.001Z,3720
2016-12-08T08:24:14.976Z,3876
2016-12-08T08:25:14.967Z,4020
2016-12-08T08:26:14.961Z,4112
2016-12-08T08:27:14.970Z,4176
2016-12-08T08:28:14.938Z,4376
2016-12-08T08:29:14.927Z,4576
2016-12-08T08:30:14.905Z,4600
2016-12-08T08:31:15.212Z,4528
2016-12-08T08:32:14.899Z,4504
2016-12-08T08:33:14.883Z,4580
2016-12-08T08:34:14.871Z,4716
2016-12-08T08:35:14.861Z,4864
2016-12-08T08:36:14.858Z,4860
2016-12-08T08:37:14.842Z,4820
2016-12-08T08:38:14.826Z,4832
2016-12-08T08:39:14.844Z,4852
2016-12-08T08:40:14.806Z,4896
2016-12-08T08:41:14.805Z,4972
2016-12-08T08:42:15.089Z,5048
2016-12-08T08:43:14.779Z,5140
2016-12-08T08:44:14.768Z,5292
2016-12-08T08:45:14.763Z,5352
2016-12-08T08:46:14.751Z,5420
2016-12-08T08:47:14.743Z,5472
2016-12-08T08:48:14.932Z,5504
2016-12-08T08:49:14.729Z,5532
2016-12-08T08:50:14.712Z,5528
2016-12-08T08:51:14.743Z,5532
2016-12-08T08:52:14.689Z,5492
2016-12-08T08:53:14.682Z,5436
2016-12-08T08:54:14.674Z,5340
2016-12-08T08:55:14.661Z,5300
2016-12-08T08:56:14.956Z,5268
2016-12-08T08:57:14.642Z,5232
2016-12-08T08:58:14.637Z,5204
2016-12-08T08:59:14.623Z,5208
2016-12-08T09:00:14.614Z,5184
2016-12-08T09:01:14.807Z,5144
2016-12-08T09:02:14.602Z,5112
2016-12-08T09:03:14.586Z,5060
2016-12-08T09:04:14.570Z,4976
2016-12-08T09:05:14.570Z,4960
2016-12-08T09:06:14.561Z,4948
2016-12-08T09:07:14.545Z,4960
2016-12-08T09:08:14.545Z,4968
2016-12-08T09:09:14.733Z,4988
2016-12-08T09:10:14.525Z,5008
2016-12-08T09:11:15.045Z,5012
2016-12-08T09:12:14.707Z,5048
2016-12-08T09:13:14.492Z,5088
2016-12-08T09:14:14.484Z,5120
2016-12-08T09:15:14.478Z,5152
2016-12-08T09:16:14.493Z,5172
2016-12-08T09:17:14.462Z,5208
2016-12-08T09:18:14.460Z,5232
2016-12-08T09:19:14.438Z,5260
2016-12-08T09:20:14.632Z,5276
2016-12-08T09:21:14.417Z,5268
2016-12-08T09:22:14.416Z,5284
2016-12-08T09:23:14.403Z,5248
2016-12-08T09:24:14.396Z,5216
2016-12-08T09:25:14.388Z,5204
2016-12-08T09:26:14.420Z,5204
2016-12-08T09:27:14.371Z,5180
2016-12-08T09:28:14.365Z,5152
2016-12-08T09:29:14.357Z,5136
2016-12-08T09:30:14.342Z,5152
2016-12-08T09:31:14.339Z,5212
2016-12-08T09:32:14.330Z,5248
2016-12-08T09:33:14.323Z,5304
2016-12-08T09:34:14.311Z,5356
2016-12-08T09:35:14.305Z,5384
2016-12-08T09:36:14.285Z,5428
2016-12-08T09:37:14.289Z,5444
2016-12-08T09:38:14.279Z,5448
2016-12-08T09:39:14.266Z,5492
2016-12-08T09:40:14.258Z,5524
2016-12-08T09:41:14.253Z,5580
2016-12-08T09:42:14.571Z,5624
2016-12-08T09:43:14.235Z,5676
2016-12-08T09:44:14.532Z,5676
2016-12-08T09:45:14.215Z,5700
2016-12-08T09:46:14.216Z,5748
2016-12-08T09:47:14.194Z,5772
2016-12-08T09:48:14.201Z,5788
2016-12-08T09:49:14.180Z,5788
2016-12-08T09:50:14.172Z,5776
2016-12-08T09:51:14.162Z,5748
2016-12-08T09:52:14.160Z,5720
2016-12-08T09:53:14.144Z,5660
2016-12-08T09:54:14.142Z,5576
2016-12-08T09:55:14.129Z,5492
2016-12-08T09:56:14.113Z,5400
2016-12-08T09:57:14.110Z,5308
2016-12-08T09:58:14.104Z,5236
2016-12-08T09:59:14.100Z,5144
2016-12-08T10:00:14.090Z,5052
2016-12-08T10:01:14.083Z,4940
2016-12-08T10:02:14.073Z,4828
2016-12-08T10:03:14.064Z,4696
2016-12-08T10:04:14.065Z,4552
2016-12-08T10:05:14.043Z,4376
2016-12-08T10:06:14.038Z,4196
2016-12-08T10:07:14.041Z,4020
2016-12-08T10:08:14.029Z,3888
2016-12-08T10:09:14.014Z,3800
2016-12-08T10:10:14.029Z,3736
2016-12-08T10:11:14.002Z,3700
2016-12-08T10:12:13.981Z,3692
2016-12-08T10:13:13.975Z,3724
2016-12-08T10:14:13.979Z,3744
2016-12-08T10:15:13.963Z,3776
2016-12-08T10:16:13.959Z,3836
2016-12-08T10:17:13.946Z,3912
2016-12-08T10:18:14.242Z,3916
2016-12-08T10:19:13.925Z,3968
2016-12-08T10:20:13.922Z,4052
2016-12-08T10:21:13.915Z,4164
2016-12-08T10:22:13.906Z,4296
2016-12-08T10:23:13.899Z,4384
2016-12-08T10:24:13.887Z,4452
2016-12-08T10:25:13.879Z,4588
2016-12-08T10:26:13.876Z,4708
2016-12-08T10:27:13.861Z,4800
2016-12-08T10:28:14.155Z,4892
2016-12-08T10:29:13.852Z,5008
2016-12-08T10:30:13.835Z,5100
2016-12-08T10:31:14.126Z,5192
2016-12-08T10:32:13.821Z,5296
2016-12-08T10:33:13.810Z,5420
2016-12-08T10:34:13.812Z,5572
2016-12-08T10:35:13.795Z,5768
2016-12-08T10:36:14.087Z,5972
2016-12-08T10:37:13.800Z,6108
2016-12-08T10:38:13.772Z,6248
2016-12-08T10:39:13.759Z,6376
2016-12-08T10:40:13.753Z,6496
2016-12-08T10:41:14.045Z,6608
2016-12-08T10:42:13.740Z,6720
2016-12-08T10:43:13.724Z,6748
2016-12-08T10:44:13.721Z,6796
2016-12-08T10:45:13.710Z,6832
2016-12-08T10:46:13.704Z,6844
2016-12-08T10:47:13.687Z,6900
2016-12-08T10:48:13.687Z,6924
2016-12-08T10:49:13.674Z,6984
2016-12-08T10:50:13.668Z,7020
2016-12-08T10:51:13.665Z,7048
2016-12-08T10:52:13.655Z,7088
2016-12-08T10:53:13.645Z,7196
2016-12-08T10:54:13.641Z,7260
2016-12-08T10:55:13.629Z,7460
2016-12-08T10:56:13.618Z,7592
2016-12-08T10:57:13.826Z,7852
2016-12-08T10:58:13.608Z,8188
2016-12-08T10:59:13.597Z,8480
2016-12-08T11:00:13.592Z,8772
2016-12-08T11:01:13.827Z,9072
2016-12-08T11:02:13.879Z,9264
2016-12-08T11:03:13.565Z,9412
2016-12-08T11:04:13.565Z,9448
2016-12-08T11:05:13.555Z,9476
2016-12-08T11:06:13.541Z,9524
2016-12-08T11:07:13.530Z,9624
2016-12-08T11:08:13.527Z,9700
2016-12-08T11:09:13.519Z,9708
2016-12-08T11:10:13.515Z,9672
2016-12-08T11:11:13.510Z,9608
2016-12-08T11:12:13.500Z,9512
2016-12-08T11:13:13.503Z,9388
2016-12-08T11:14:13.794Z,9196
2016-12-08T11:15:13.478Z,8984
2016-12-08T11:16:13.469Z,8756
2016-12-08T11:17:13.459Z,8488
2016-12-08T11:18:13.456Z,8268
2016-12-08T11:19:13.455Z,8056
2016-12-08T11:20:13.450Z,7872
2016-12-08T11:21:13.438Z,7620
2016-12-08T11:22:13.735Z,7432
2016-12-08T11:23:13.428Z,7312
2016-12-08T11:24:13.446Z,7180
2016-12-08T11:25:13.414Z,7092
2016-12-08T11:26:13.404Z,7056
2016-12-08T11:27:13.400Z,7112
2016-12-08T11:28:13.396Z,7216
2016-12-08T11:29:13.390Z,7344
2016-12-08T11:30:13.678Z,7484
2016-12-08T11:31:13.371Z,7544
2016-12-08T11:32:13.360Z,7568
2016-12-08T11:33:13.658Z,7564
2016-12-08T11:34:13.351Z,7460
2016-12-08T11:35:13.342Z,7356
2016-12-08T11:36:13.692Z,7140
2016-12-08T11:37:13.337Z,6976
2016-12-08T11:38:13.625Z,6840
2016-12-08T11:39:13.327Z,6700
2016-12-08T11:40:13.315Z,6496
2016-12-08T11:41:13.317Z,6364
2016-12-08T11:42:13.307Z,6224
2016-12-08T11:43:13.301Z,6084
2016-12-08T11:44:13.292Z,5980
2016-12-08T11:45:13.288Z,5888
2016-12-08T11:46:13.279Z,5832
2016-12-08T11:47:13.274Z,5816
2016-12-08T11:48:13.267Z,5800
2016-12-08T11:49:13.265Z,5772
2016-12-08T11:50:13.257Z,5756
2016-12-08T11:51:13.245Z,5716
2016-12-08T11:52:13.235Z,5636
2016-12-08T11:53:13.232Z,5576
2016-12-08T11:54:13.236Z,5488
2016-12-08T11:55:13.218Z,5352
2016-12-08T11:56:13.217Z,5228
2016-12-08T11:57:13.206Z,5084
2016-12-08T11:58:13.208Z,4944
2016-12-08T11:59:13.195Z,4792
2016-12-08T12:00:13.185Z,4648
2016-12-08T12:01:13.175Z,4536
2016-12-08T12:02:13.181Z,4508
2016-12-08T12:03:13.164Z,4476
2016-12-08T12:04:13.175Z,4444
2016-12-08T12:05:13.147Z,4464
2016-12-08T12:06:13.148Z,4580
2016-12-08T12:07:13.146Z,4592
2016-12-08T12:08:13.135Z,4560
2016-12-08T12:09:13.124Z,4516
2016-12-08T12:10:13.118Z,4428
2016-12-08T12:11:13.435Z,4336
2016-12-08T12:12:13.116Z,4272
2016-12-08T12:13:13.100Z,4292
2016-12-08T12:14:13.094Z,4324
2016-12-08T12:15:13.393Z,4364
2016-12-08T12:16:13.085Z,4384
2016-12-08T12:17:13.078Z,4376
2016-12-08T12:18:13.069Z,4348
2016-12-08T12:19:13.062Z,4272
2016-12-08T12:20:13.057Z,4220
2016-12-08T12:21:13.353Z,4168
2016-12-08T12:22:13.046Z,4148
2016-12-08T12:23:13.036Z,4132
2016-12-08T12:24:13.033Z,4116
2016-12-08T12:25:13.017Z,4104
2016-12-08T12:26:13.011Z,4084
2016-12-08T12:27:13.009Z,4052
2016-12-08T12:28:13.001Z,4016
2016-12-08T12:29:12.999Z,3980
2016-12-08T12:30:12.985Z,3964
2016-12-08T12:31:12.974Z,3940
2016-12-08T12:32:12.972Z,3928
2016-12-08T12:33:12.962Z,3888
2016-12-08T12:34:12.966Z,3812
2016-12-08T12:35:12.956Z,3740
2016-12-08T12:36:12.943Z,3616
2016-12-08T12:37:12.939Z,3500
2016-12-08T12:38:12.930Z,3396
2016-12-08T12:39:12.924Z,3316
2016-12-08T12:40:12.945Z,3236
2016-12-08T12:41:13.215Z,3204
2016-12-08T12:42:12.896Z,3184
2016-12-08T12:43:12.902Z,3196
2016-12-08T12:44:12.883Z,3224
2016-12-08T12:45:12.883Z,3204
2016-12-08T12:46:12.872Z,3192
2016-12-08T12:47:13.169Z,3220
2016-12-08T12:48:12.859Z,3316
2016-12-08T12:49:12.851Z,3460
2016-12-08T12:50:12.847Z,3656
2016-12-08T12:51:12.836Z,3892
2016-12-08T12:52:12.828Z,4144
2016-12-08T12:53:12.817Z,4324
2016-12-08T12:54:12.819Z,4516
2016-12-08T12:55:12.806Z,4716
2016-12-08T12:56:12.809Z,4852
2016-12-08T12:57:12.791Z,4940
2016-12-08T12:58:12.783Z,4952
2016-12-08T12:59:12.775Z,4952
2016-12-08T13:00:12.769Z,4956
2016-12-08T13:01:12.765Z,4864
2016-12-08T13:02:14.758Z,4744
2016-12-08T13:03:12.751Z,4656
2016-12-08T13:04:12.741Z,4524
2016-12-08T13:05:12.734Z,4376
2016-12-08T13:06:12.728Z,4276
2016-12-08T13:07:12.728Z,4164
2016-12-08T13:08:12.711Z,4128
2016-12-08T13:09:12.704Z,4104
2016-12-08T13:10:12.998Z,4168
2016-12-08T13:11:12.689Z,4240
2016-12-08T13:12:12.674Z,4252
2016-12-08T13:13:12.683Z,4284
2016-12-08T13:14:12.665Z,4256
2016-12-08T13:15:12.676Z,4188
2016-12-08T13:16:12.958Z,4028
2016-12-08T13:17:12.644Z,3768
2016-12-08T13:18:12.647Z,3564
2016-12-08T13:19:12.625Z,3388
2016-12-08T13:20:12.624Z,3212
2016-12-08T13:21:12.630Z,3028
2016-12-08T13:22:12.614Z,2904
2016-12-08T13:23:12.601Z,2820
2016-12-08T13:24:12.596Z,2752
2016-12-08T13:25:12.888Z,2700
2016-12-08T13:26:12.581Z,2656
2016-12-08T13:27:12.571Z,2620
2016-12-08T13:28:12.567Z,2604
2016-12-08T13:29:12.560Z,2592
2016-12-08T13:30:12.551Z,2596
2016-12-08T13:31:12.539Z,2600
2016-12-08T13:32:12.533Z,2624
2016-12-08T13:33:12.529Z,2612
2016-12-08T13:34:12.526Z,2600
2016-12-08T13:35:12.820Z,2564
2016-12-08T13:36:12.508Z,2528
2016-12-08T13:37:12.492Z,2496
2016-12-08T13:38:12.491Z,2476
2016-12-08T13:39:12.477Z,2476
2016-12-08T13:40:12.479Z,2456
2016-12-08T13:41:12.493Z,2416
2016-12-08T13:42:12.761Z,2368
2016-12-08T13:43:12.457Z,2300
2016-12-08T13:44:12.444Z,2216
2016-12-08T13:45:12.734Z,2116
2016-12-08T13:46:12.426Z,2024
2016-12-08T13:47:12.424Z,1944
2016-12-08T13:48:12.416Z,1872
2016-12-08T13:49:12.407Z,1820
2016-12-08T13:50:12.405Z,1792
2016-12-08T13:51:12.393Z,1784
2016-12-08T13:52:12.390Z,1808
2016-12-08T13:53:12.380Z,1860
2016-12-08T13:54:12.376Z,1932
2016-12-08T13:55:12.359Z,2000
2016-12-08T13:56:12.351Z,2044
2016-12-08T13:57:12.354Z,2048
2016-12-08T13:58:12.337Z,2012
2016-12-08T13:59:12.340Z,1928